1 października 2022

Czas Kod Pogoda Temp. Widoczność Sufit Wiatr METAR/SPECI
02:20
I
6 °C 4,7 km - 210° 210° 4 kt METAR ETHL 010020Z AUTO 21004KT 4700 // ////// 06/06 Q1015 ///
01:20
I
5 °C 3,6 km - 190° 190° 2 kt METAR ETHL 302320Z AUTO 19002KT 3600 // ////// 05/05 Q1014 ///
00:20
I
5 °C 3,4 km - 220° 220° 2 kt METAR ETHL 302220Z AUTO 22002KT 3400 // ////// 05/04 Q1014 ///

30 września 2022

Czas Kod Pogoda Temp. Widoczność Sufit Wiatr METAR/SPECI
23:20
I
4 °C 2,3 km - Var Var 2 kt METAR ETHL 302120Z AUTO VRB02KT 2300 // ////// 04/04 Q1014 ///
22:20
I
5 °C 4,6 km - 250° 250° 3 kt METAR ETHL 302020Z AUTO 25003KT 4600 // ////// 05/05 Q1014 ///
21:20
I
6 °C 4,6 km - Var Var 2 kt METAR ETHL 301920Z AUTO VRB02KT 4600 // ////// 06/06 Q1014 ///
20:20
I
7 °C 3,9 km - 190° 190° 1 kt METAR ETHL 301820Z AUTO 19001KT 3900 // ////// 07/06 Q1014 ///
19:20
M
8 °C 5 km - 110° 110° 1 kt METAR ETHL 301720Z AUTO 11001KT 5000 // ////// 08/06 Q1013 ///
18:20
V
10 °C 10 km+ - 080° 080° 1 kt METAR ETHL 301620Z 08001KT 9999 FEW015 SCT140 10/06 Q1013 BLU+
17:53
V
10 °C 10 km+ - 090° 090° 2 kt METAR ETHL 301553Z 09002KT 9999 SCT013 SCT140 10/06 Q1013 BLU+
17:20
M
10 °C 10 km+ 1.300 ft Var Var 1 kt METAR ETHL 301520Z VRB01KT 9999 BKN013 10/06 Q1013 GRN
16:20
M
10 °C 10 km+ 1.100 ft 070° 070° 1 kt METAR ETHL 301420Z 07001KT 9999 BKN011 10/06 Q1012 GRN
15:20
I
9 °C 10 km+ 800 ft 130° 130° 1 kt METAR ETHL 301320Z 13001KT 9999 BKN008 09/06 Q1012 GRN
14:52
I
9 °C 9 km 800 ft Var Var 2 kt METAR ETHL 301252Z VRB02KT 9000 BKN008 09/07 Q1012 GRN
14:20
I
9 °C 8 km 600 ft Var Var 2 kt METAR ETHL 301220Z VRB02KT 8000 BKN006 09/07 Q1012 YLO
13:20
L
8 °C 5 km 300 ft 120° 120° 4 kt METAR ETHL 301120Z 12004KT 5000 BR BKN003 08/08 Q1012 YLO
12:52
L
8 °C 3 km 300 ft 110° 110° 3 kt METAR ETHL 301052Z 11003KT 3000 BR BKN003 08/07 Q1012 YLO
12:20
L
7 °C 3 km 200 ft 030° 030° 2 kt METAR ETHL 301020Z 03002KT 3000 BR BKN002 07/07 Q1012 AMB
11:56
L
7 °C 2 km 200 ft Var Var 3 kt METAR ETHL 300956Z VRB03KT 2000 BR BKN002 07/07 Q1011 AMB FCST CNL
11:33
L
7 °C 1,4 km 200 ft Var 000° 0 kt METAR ETHL 300933Z 02 1400 R09/2700U BR BKN002 07/06 Q1011 AMB RED BECMG YLO
11:20
L
6 °C 500 m 100 ft 060° 060° 2 kt METAR ETHL 300920Z 06002KT 0500 R09/0750U FG VV001 06/06 Q000/ RED RED
10:20
L
6 °C 300 m - 060° 060° 3 kt METAR ETHL 300820Z 06003KT 0300 R09/0750U FG VV000 06/06 Q1010 RED RED
09:20
L
6 °C 300 m - 040° 040° 2 kt METAR ETHL 300720Z 04002KT 0300 R09/0750D FG VV000 06/06 Q1010 RED RED
08:20
L
6 °C 200 m - 030° 030° 1 kt METAR ETHL 300620Z 03001KT 0200 R09/0350N FG VV000 06/06 Q1010 RED RED
07:20
L
5 °C 200 m - 120° 120° 2 kt METAR ETHL 300520Z 12002KT 0200 R09/0400N FG VV000 05/05 Q1009 RED RED
06:20
L
5 °C 200 m - 100° 100° 3 kt METAR ETHL 300420Z 10003KT 0200 FG 05/05 Q1008 RED RED
05:20
L
5 °C 100 m - 110° 110° 3 kt METAR ETHL 300320Z AUTO 11003KT 0100 // ////// 05/05 Q1008 ///
04:20
L
6 °C 100 m - 070° 070° 3 kt METAR ETHL 300220Z AUTO 07003KT 0100 // ////// 06/05 Q1008 ///
03:20
L
6 °C 200 m - 040° 040° 2 kt METAR ETHL 300120Z AUTO 04002KT 0200 // ////// 06/06 Q1007 ///
02:20
L
6 °C 200 m - 020° 020° 1 kt METAR ETHL 300020Z AUTO 02001KT 0200 // ////// 06/06 Q1007 ///
01:20
L
6 °C 150 m - 030° 030° 3 kt METAR ETHL 292320Z AUTO 03003KT 0150 // ////// 06/05 Q1007 ///
00:20
L
7 °C 150 m - Var 000° 0 kt METAR ETHL 292220Z AUTO 00000KT 0150 // ////// 07/06 Q1007 ///

29 września 2022

Czas Kod Pogoda Temp. Widoczność Sufit Wiatr METAR/SPECI
23:20
V
8 °C 10 km+ 12.000 ft 130° 130° 1 kt METAR ETHL 292120Z 13001KT 9999 FEW030 BKN120 08/07 Q1006 BLU
22:20
V
8 °C 10 km+ 14.000 ft 040° 040° 1 kt METAR ETHL 292020Z 04001KT 9999 FEW030 BKN140 08/07 Q1006 BLU
21:20
V
9 °C 10 km+ 5.000 ft Var 000° 0 kt METAR ETHL 291920Z 00000KT 9999 FEW020 BKN050 BKN140 09/07 Q1005 BLU
20:20
V
9 °C 10 km+ 10.000 ft 110° 110° 2 kt METAR ETHL 291820Z 11002KT 9999 FEW020 SCT050 BKN100 09/07 Q1004 BLU
19:45
V
9 °C 10 km+ 5.000 ft 130° 130° 2 kt METAR ETHL 291745Z 13002KT 9999 -RA FEW020 BKN050 09/08 Q1004 BLU FCST CNL
19:20
V
10 °C 10 km+ 4.000 ft 120° 120° 3 kt METAR ETHL 291720Z 12003KT 9999 -RA FEW020 BKN040 10/07 Q1004 BLU BLU TEMPO WHT
18:20
V
10 °C 10 km+ 6.000 ft 140° 140° 4 kt METAR ETHL 291620Z 14004KT 9999 SCT020 BKN060 10/07 Q1004 BLU BLU TEMPO WHT
17:40
V
11 °C 10 km+ 9.000 ft 130° 130° 3 kt METAR ETHL 291540Z 13003KT 9999 SCT020 SCT060 BKN090 11/06 Q1003 BLU BLU TEMPO WHT
17:20
M
11 °C 10 km+ 2.000 ft 130° 130° 3 kt METAR ETHL 291520Z 13003KT 9999 BKN020 SCT050 BKN090 11/06 Q1003 WHT BLU TEMPO WHT
17:06
M
11 °C 10 km+ 2.000 ft 100° 100° 3 kt METAR ETHL 291506Z 10003KT 9999 BKN020 SCT043 BKN090 11/06 Q1003 WHT BLU TEMPO WHT
16:20
V
11 °C 10 km+ 11.000 ft 090° 090° 4 kt METAR ETHL 291420Z 09004KT 9999 SCT022 SCT050 BKN110 11/06 Q1002 BLU BLU TEMPO WHT
16:01
V
11 °C 10 km+ 11.000 ft 110° 110° 4 kt METAR ETHL 291401Z 11004KT 9999 SCT025 SCT050 BKN110 11/06 Q1002 BLU BLU TEMPO WHT
15:20
M
11 °C 10 km+ 2.100 ft 010° 010° 1 kt METAR ETHL 291320Z 01001KT 9999 BKN021 SCT042 BKN060 11/06 Q1002 WHT BLU TEMPO WHT
14:20
M
11 °C 10 km+ 1.900 ft Var Var 2 kt METAR ETHL 291220Z VRB02KT 9999 BKN019 SCT040 BKN060 11/06 Q1002 WHT BLU TEMPO GRN
13:41
M
11 °C 10 km+ 1.700 ft Var Var 2 kt METAR ETHL 291141Z VRB02KT 9999 -RA BKN017 SCT038 BKN060 11/06 Q1002 WHT BLU TEMPO GRN
13:20
M
10 °C 10 km+ 1.400 ft Var Var 2 kt METAR ETHL 291120Z VRB02KT 9999 BKN014 BKN060 10/06 Q1002 GRN BLU TEMPO GRN
12:20
M
10 °C 10 km+ 1.300 ft 270° 270° 1 kt METAR ETHL 291020Z 27001KT 9999 BKN013 BKN050 10/07 Q1002 GRN BLU TEMPO GRN
11:20
M
9 °C 10 km+ 1.400 ft Var Var 2 kt METAR ETHL 290920Z VRB02KT 9999 BKN014 BKN035 09/06 Q1002 GRN BLU TEMPO GRN
10:39
I
9 °C 10 km+ 900 ft 070° 070° 1 kt METAR ETHL 290839Z 07001KT 9999 BKN009 BKN035 09/06 Q1002 GRN BLU TEMPO GRN
10:20
V
8 °C 10 km+ 8.000 ft Var Var 2 kt METAR ETHL 290820Z VRB02KT 9999 SCT007 SCT035 BKN080 08/06 Q1001 BLU BLU TEMPO GRN
09:20
V
8 °C 9 km 4.000 ft Var 000° 0 kt METAR ETHL 290720Z 00000KT 9000 -RA FEW015 BKN040 BKN080 08/06 Q1001 BLU BLU TEMPO GRN
08:20
V
7 °C 10 km+ 3.600 ft Var Var 2 kt METAR ETHL 290620Z VRB02KT 9999 -RA FEW015 BKN036 07/06 Q1001 BLU BLU TEMPO WHT
07:20
V
7 °C 9 km 4.100 ft 120° 120° 1 kt METAR ETHL 290520Z 12001KT 9000 FEW015 BKN041 07/06 Q1001 BLU WHT
06:20
M
7 °C 7 km 4.600 ft 140° 140° 2 kt METAR ETHL 290420Z 14002KT 7000 SCT013 BKN046 07/06 Q1001 WHT WHT
05:20
M
7 °C 7 km - 050° 050° 1 kt METAR ETHL 290320Z AUTO 05001KT 7000 // ////// 07/06 Q1001 ///
04:20
V
7 °C 8 km - 160° 160° 1 kt METAR ETHL 290220Z AUTO 16001KT 8000 // ////// 07/06 Q1001 ///
03:20
V
7 °C 9 km - 190° 190° 3 kt METAR ETHL 290120Z AUTO 19003KT 9000 // ////// 07/06 Q1001 ///
02:20
V
7 °C 9 km - 190° 190° 3 kt METAR ETHL 290020Z AUTO 19003KT 9000 // ////// 07/06 Q1001 ///
01:20
V
7 °C 10 km+ - 190° 190° 3 kt METAR ETHL 282320Z AUTO 19003KT 9999 // ////// 07/06 Q1002 ///
00:20
V
7 °C 9 km - 230° 230° 6 kt METAR ETHL 282220Z AUTO 23006KT 9000 // ////// 07/06 Q1002 ///
00:00
V
7 °C 10 km+ 3.400 ft 230° 230° 6 kt METAR ETHL 282200Z 23006KT 9999 FEW010 BKN034 07/06 Q1002 BLU FCST CNL

28 września 2022

Czas Kod Pogoda Temp. Widoczność Sufit Wiatr METAR/SPECI
23:20
V
7 °C 10 km+ 14.000 ft 250° 250° 7 kt METAR ETHL 282120Z 25007KT 9999 SCT040 BKN140 07/06 Q1002 BLU BLU TEMPO GRN
22:20
V
7 °C 10 km+ 5.000 ft 210° 210° 5 kt METAR ETHL 282020Z 21005KT 9999 FEW020 BKN050 07/06 Q1002 BLU BLU TEMPO GRN
21:20
V
7 °C 10 km+ 5.000 ft 250° 250° 5 kt METAR ETHL 281920Z 25005KT 9999 FEW020 BKN050 07/06 Q1001 BLU BLU TEMPO GRN
20:20
V
7 °C 10 km+ 5.000 ft 230° 230° 5 kt METAR ETHL 281820Z 23005KT 9999 FEW020 BKN050 07/05 Q1001 BLU BLU TEMPO GRN
19:20
V
7 °C 10 km+ 5.000 ft 230° 230° 5 kt METAR ETHL 281720Z 23005KT 9999 FEW020 BKN050 07/05 Q1000 BLU BLU TEMPO GRN
Starsze dane

My i osoby trzecie śledzimy twoje zachowanie w internecie na naszej stronie za pomocą plików cookie. Jeśli kontynuujesz, zakładamy, że zgadzasz się z naszą polityką plików cookie. Dowiedz się więcej